Time;durP1;ratioP1;P1;durP2;ratioP2;P2;SDS_P1;SDS_P2;PMS_P1;PMS_P2;Temp;Humidity;BMP_temperature;BMP_pressure;BME280_temperature;BME280_humidity;BME280_pressure;Samples;Min_cycle;Max_cycle;Signal;HPM_P1;HPM_P2
2023/05/01 00:01:58;;;;;;;8.13;5.30;;;;;;;;;;6119010;23;20013;-86
2023/05/01 00:04:28;;;;;;;10.20;5.63;;;;;;;;;;6120072;23;20073;-86
2023/05/01 00:07:37;;;;;;;9.65;5.72;;;;;;;;;;6120044;23;20006;-87
2023/05/01 00:10:39;;;;;;;8.93;5.38;;;;;;;;;;6120325;23;20023;-86
2023/05/01 00:13:25;;;;;;;;;;;;;;;;;;;;;
2023/05/01 00:15:58;;;;;;;8.90;5.75;;;;;;;;;;6149948;23;20528;-86
2023/05/01 00:18:35;;;;;;;10.43;6.72;;;;;;;;;;6149597;23;20040;-86
2023/05/01 00:21:01;;;;;;;10.50;5.90;;;;;;;;;;6149315;23;20001;-86
2023/05/01 00:23:35;;;;;;;9.98;6.03;;;;;;;;;;6150229;22;20011;-86
2023/05/01 00:26:33;;;;;;;11.07;6.20;;;;;;;;;;6150142;23;20016;-86
2023/05/01 00:29:35;;;;;;;10.43;6.40;;;;;;;;;;6150085;23;20009;-87
2023/05/01 00:35:12;;;;;;;11.55;5.97;;;;;;;;;;6165021;23;20100;-87
2023/05/01 00:37:45;;;;;;;13.77;6.28;;;;;;;;;;6149345;23;20010;-87
2023/05/01 00:40:29;;;;;;;11.75;6.57;;;;;;;;;;6146770;23;20013;-88
2023/05/01 00:43:00;;;;;;;11.40;6.32;;;;;;;;;;6155315;22;20012;-87
2023/05/01 00:45:28;;;;;;;10.15;6.00;;;;;;;;;;6149175;23;20063;-87
2023/05/01 00:48:02;;;;;;;10.27;6.95;;;;;;;;;;6149188;23;20345;-86
2023/05/01 00:50:45;;;;;;;12.30;6.60;;;;;;;;;;6149559;22;20055;-86
2023/05/01 00:53:41;;;;;;;11.82;6.60;;;;;;;;;;6149181;23;20528;-87
2023/05/01 00:56:10;;;;;;;12.75;6.43;;;;;;;;;;6148412;23;20010;-87
2023/05/01 00:58:55;;;;;;;9.32;6.60;;;;;;;;;;6151281;22;20007;-87
2023/05/01 01:02:07;;;;;;;13.13;6.90;;;;;;;;;;6149548;23;20444;-86
2023/05/01 01:04:56;;;;;;;11.68;6.75;;;;;;;;;;6144847;23;20035;-86
2023/05/01 01:07:56;;;;;;;;;;;;;;;;;;;;;
2023/05/01 01:11:07;;;;;;;10.32;6.60;;;;;;;;;;6175665;23;20589;-87
2023/05/01 01:18:18;;;;;;;8.90;6.60;;;;;;;;;;6108537;23;20044;-87
2023/05/01 01:20:52;;;;;;;11.27;6.68;;;;;;;;;;6064416;23;20034;-87
2023/05/01 01:27:58;;;;;;;;;;;;;;;;;;;;;
2023/05/01 01:31:07;;;;;;;14.07;6.43;;;;;;;;;;5973960;24;20430;-88
2023/05/01 01:38:11;;;;;;;;;;;;;;;;;;;;;
2023/05/01 04:05:54;;;;;;;;;;;;;;;;;;;;;
2023/05/01 04:09:16;;;;;;;;;;;;;;;;;;;;;
2023/05/01 04:19:30;;;;;;;;;;;;;;;;;;;;;
2023/05/01 04:47:08;;;;;;;;;;;;;;;;;;;;;
2023/05/01 04:50:28;;;;;;;;;;;;;;;;;;;;;
2023/05/01 04:53:39;;;;;;;4.00;1.90;;;;;;;;;;5734629;24;20107;-86
2023/05/01 05:00:31;;;;;;;3.38;2.03;;;;;;;;;;5980926;23;20019;-86
2023/05/01 05:07:23;;;;;;;;;;;;;;;;;;;;;
2023/05/01 05:10:43;;;;;;;3.45;1.40;;;;;;;;;;6002247;23;20118;-86
2023/05/01 05:13:54;;;;;;;;;;;;;;;;;;;;;
2023/05/01 05:17:06;;;;;;;3.40;1.60;;;;;;;;;;6145307;23;20085;-85
2023/05/01 05:34:13;;;;;;;2.30;1.23;;;;;;;;;;6001053;23;20019;-85
2023/05/01 06:01:58;;;;;;;1.83;1.00;;;;;;;;;;5898823;24;20066;-88
2023/05/01 06:05:13;;;;;;;;;;;;;;;;;;;;;
2023/05/01 07:57:23;;;;;;;2.65;0.90;;;;;;;;;;6156227;22;20027;-86
2023/05/01 08:19:18;;;;;;;;;;;;;;;;;;6301251;22;20054;-85
2023/05/01 08:21:46;;;;;;;1.23;0.70;;;;;;;;;;6274678;22;20431;-85
2023/05/01 08:24:12;;;;;;;1.85;0.80;;;;;;;;;;6275193;22;20079;-84
2023/05/01 08:26:55;;;;;;;;;;;;;;;;;;;;;
2023/05/01 08:29:53;;;;;;;2.53;0.95;;;;;;;;;;6300850;22;20098;-83
2023/05/01 08:32:59;;;;;;;1.92;0.80;;;;;;;;;;6300792;22;20057;-84
2023/05/01 08:36:02;;;;;;;7.00;3.65;;;;;;;;;;6132719;23;20018;-85
2023/05/01 08:38:34;;;;;;;2.60;0.90;;;;;;;;;;6145411;23;20073;-82
2023/05/01 08:41:26;;;;;;;1.40;0.80;;;;;;;;;;6251528;22;20283;-84
2023/05/01 08:43:52;;;;;;;2.78;0.93;;;;;;;;;;6313176;22;19995;-84
2023/05/01 08:46:40;;;;;;;2.55;0.80;;;;;;;;;;6303869;22;20071;-82
2023/05/01 08:49:08;;;;;;;1.33;0.80;;;;;;;;;;6274359;22;20094;-83
2023/05/01 08:51:35;;;;;;;2.17;0.93;;;;;;;;;;6274158;22;20074;-82
2023/05/01 08:54:02;;;;;;;3.08;1.00;;;;;;;;;;6274892;22;20003;-82
2023/05/01 08:56:33;;;;;;;2.85;1.10;;;;;;;;;;6274585;22;20526;-84
2023/05/01 08:59:02;;;;;;;2.20;1.05;;;;;;;;;;6274465;22;20003;-83
2023/05/01 09:01:32;;;;;;;2.55;0.90;;;;;;;;;;6274761;22;20466;-83
2023/05/01 09:04:31;;;;;;;2.15;1.05;;;;;;;;;;6272131;22;20003;-82
2023/05/01 09:07:08;;;;;;;1.60;0.82;;;;;;;;;;6270320;22;20126;-83
2023/05/01 09:09:43;;;;;;;3.67;0.80;;;;;;;;;;6274274;22;20034;-84
2023/05/01 09:12:24;;;;;;;1.83;0.90;;;;;;;;;;6273154;22;20180;-84
2023/05/01 09:14:58;;;;;;;2.47;1.00;;;;;;;;;;6273829;22;20011;-85
2023/05/01 09:21:49;;;;;;;4.38;1.23;;;;;;;;;;6203928;23;20009;-83
2023/05/01 09:24:23;;;;;;;2.13;0.70;;;;;;;;;;6156279;23;20008;-84
2023/05/01 09:32:34;;;;;;;0.68;0.40;;;;;;;;;;6146262;22;20018;-83
2023/05/01 09:37:48;;;;;;;1.08;0.30;;;;;;;;;;6226146;22;20023;-84
2023/05/01 09:40:25;;;;;;;1.13;0.70;;;;;;;;;;6273603;22;20594;-85
2023/05/01 09:42:54;;;;;;;1.20;0.70;;;;;;;;;;6274170;22;20007;-85
2023/05/01 09:46:09;;;;;;;;;;;;;;;;;;;;;
2023/05/01 09:48:54;;;;;;;1.45;0.70;;;;;;;;;;6174587;23;20092;-85
2023/05/01 09:55:19;;;;;;;1.63;0.60;;;;;;;;;;6301219;22;20439;-85
2023/05/01 09:57:45;;;;;;;2.05;0.90;;;;;;;;;;6272521;22;20089;-85
2023/05/01 10:00:13;;;;;;;2.05;0.80;;;;;;;;;;6272954;22;20440;-88
2023/05/01 10:02:44;;;;;;;2.22;0.80;;;;;;;;;;6298817;22;19999;-83
2023/05/01 10:12:38;;;;;;;1.27;0.60;;;;;;;;;;6030601;23;20715;-86
2023/05/01 10:15:05;;;;;;;0.82;0.60;;;;;;;;;;6005872;23;20110;-91
2023/05/01 10:17:57;;;;;;;;;;;;;;;;;;;;;
2023/05/01 10:21:23;;;;;;;1.10;0.60;;;;;;;;;;6030173;23;20491;-86
2023/05/01 10:24:41;;;;;;;1.38;0.60;;;;;;;;;;6009343;23;20091;-87
2023/05/01 10:27:11;;;;;;;0.57;0.40;;;;;;;;;;6091698;23;20005;-86
2023/05/01 10:29:39;;;;;;;1.48;0.60;;;;;;;;;;6126404;23;20005;-81
2023/05/01 10:32:07;;;;;;;1.88;0.80;;;;;;;;;;6248095;22;20003;-82
2023/05/01 10:34:41;;;;;;;1.73;0.50;;;;;;;;;;6303616;22;20545;-84
2023/05/01 10:37:20;;;;;;;0.90;0.60;;;;;;;;;;6304103;22;20019;-77
2023/05/01 10:39:46;;;;;;;2.35;1.00;;;;;;;;;;6303836;22;19999;-78
2023/05/01 10:42:14;;;;;;;1.50;0.80;;;;;;;;;;6303655;22;20003;-75
2023/05/01 10:44:41;;;;;;;1.70;0.60;;;;;;;;;;6303636;22;20010;-80
2023/05/01 10:47:26;;;;;;;0.65;0.60;;;;;;;;;;6303928;22;20086;-81
2023/05/01 10:50:14;;;;;;;1.20;0.70;;;;;;;;;;6305194;22;20535;-79
2023/05/01 10:53:16;;;;;;;1.35;0.70;;;;;;;;;;6305060;22;20003;-79
2023/05/01 10:56:36;;;;;;;1.20;0.60;;;;;;;;;;6308192;22;20462;-83
2023/05/01 10:59:08;;;;;;;71.40;3.30;;;;;;;;;;6266739;22;20011;-85
2023/05/01 11:01:38;;;;;;;9.15;0.98;;;;;;;;;;6277154;22;20656;-85
2023/05/01 11:04:09;;;;;;;0.90;0.65;;;;;;;;;;6302694;22;20447;-83
2023/05/01 11:06:36;;;;;;;1.40;0.70;;;;;;;;;;6301965;22;19999;-77
2023/05/01 11:09:40;;;;;;;1.38;0.80;;;;;;;;;;6301517;22;20007;-78
2023/05/01 11:12:08;;;;;;;0.95;0.70;;;;;;;;;;6301000;22;20586;-77
2023/05/01 11:14:52;;;;;;;1.08;0.70;;;;;;;;;;6301281;22;20034;-78
2023/05/01 11:17:39;;;;;;;2.65;0.80;;;;;;;;;;6300748;22;20003;-77
2023/05/01 11:20:09;;;;;;;0.85;0.60;;;;;;;;;;6301055;22;20004;-78
2023/05/01 11:22:36;;;;;;;2.13;0.80;;;;;;;;;;6274184;22;20012;-78
2023/05/01 11:25:03;;;;;;;1.60;0.65;;;;;;;;;;6302948;22;20034;-78
2023/05/01 11:27:29;;;;;;;0.80;0.63;;;;;;;;;;6302367;22;20114;-77
2023/05/01 11:29:57;;;;;;;1.67;0.70;;;;;;;;;;6301588;22;20006;-78
2023/05/01 11:32:26;;;;;;;1.30;0.70;;;;;;;;;;6302683;22;20082;-77
2023/05/01 11:34:53;;;;;;;0.90;0.60;;;;;;;;;;6302856;22;20003;-76
2023/05/01 11:37:19;;;;;;;1.02;0.40;;;;;;;;;;6302077;22;20344;-76
2023/05/01 11:39:52;;;;;;;0.40;0.28;;;;;;;;;;6302647;22;20004;-77
2023/05/01 11:42:23;;;;;;;0.52;0.30;;;;;;;;;;6302558;22;20461;-76
2023/05/01 11:45:09;;;;;;;1.20;0.60;;;;;;;;;;6275065;22;20028;-76
2023/05/01 11:47:36;;;;;;;0.80;0.60;;;;;;;;;;6302326;22;20544;-76
2023/05/01 11:50:01;;;;;;;1.58;0.60;;;;;;;;;;6302783;22;20010;-77
2023/05/01 11:52:28;;;;;;;0.95;0.70;;;;;;;;;;6302190;22;20391;-77
2023/05/01 11:54:54;;;;;;;0.95;0.70;;;;;;;;;;6302929;22;19999;-76
2023/05/01 11:57:20;;;;;;;2.00;0.70;;;;;;;;;;6302137;22;20010;-78
2023/05/01 11:59:46;;;;;;;1.75;0.70;;;;;;;;;;6302032;22;20064;-79
2023/05/01 12:02:19;;;;;;;1.77;0.70;;;;;;;;;;6302493;22;20009;-82
2023/05/01 12:04:45;;;;;;;1.90;0.80;;;;;;;;;;6304897;22;20003;-82
2023/05/01 12:07:23;;;;;;;1.10;0.80;;;;;;;;;;6303848;22;20004;-84
2023/05/01 12:09:50;;;;;;;1.80;0.60;;;;;;;;;;6304045;22;20431;-78
2023/05/01 12:12:16;;;;;;;0.93;0.70;;;;;;;;;;6303610;22;19995;-83
2023/05/01 12:14:42;;;;;;;2.15;0.63;;;;;;;;;;6305256;22;20026;-87
2023/05/01 12:17:10;;;;;;;1.08;0.75;;;;;;;;;;6304342;22;20145;-87
2023/05/01 12:19:46;;;;;;;1.45;0.70;;;;;;;;;;6305393;22;20000;-87
2023/05/01 12:22:11;;;;;;;1.30;0.65;;;;;;;;;;6306058;22;20434;-85
2023/05/01 12:24:37;;;;;;;2.17;0.70;;;;;;;;;;6307075;22;20408;-87
2023/05/01 12:27:02;;;;;;;0.95;0.60;;;;;;;;;;6278515;22;20043;-91
2023/05/01 12:29:40;;;;;;;1.25;0.70;;;;;;;;;;6307164;22;20007;-89
2023/05/01 12:32:07;;;;;;;3.90;0.88;;;;;;;;;;6305821;22;20074;-91
2023/05/01 12:34:33;;;;;;;1.05;0.70;;;;;;;;;;6306838;22;19999;-92
2023/05/01 12:36:58;;;;;;;1.42;0.60;;;;;;;;;;6306551;22;20020;-91
2023/05/01 12:39:25;;;;;;;1.38;0.70;;;;;;;;;;6279860;22;20346;-91
2023/05/01 12:41:51;;;;;;;0.90;0.70;;;;;;;;;;6306484;22;20027;-87
2023/05/01 12:44:25;;;;;;;1.58;0.68;;;;;;;;;;6304465;22;20071;-86
2023/05/01 12:47:05;;;;;;;1.55;0.77;;;;;;;;;;6303925;22;20003;-91
2023/05/01 12:49:31;;;;;;;0.88;0.60;;;;;;;;;;6306411;22;20007;-89
2023/05/01 12:52:02;;;;;;;1.85;0.63;;;;;;;;;;6305231;22;20023;-84
2023/05/01 12:54:36;;;;;;;1.15;0.70;;;;;;;;;;6306026;22;20041;-87
2023/05/01 12:57:07;;;;;;;0.95;0.60;;;;;;;;;;6305300;22;20027;-87
2023/05/01 12:59:34;;;;;;;1.15;0.60;;;;;;;;;;6305411;22;20454;-87
2023/05/01 13:02:01;;;;;;;0.63;0.63;;;;;;;;;;6323983;22;20003;-86
2023/05/01 13:04:27;;;;;;;1.67;0.60;;;;;;;;;;6307543;22;19995;-81
2023/05/01 13:06:56;;;;;;;1.02;0.70;;;;;;;;;;6305272;22;20010;-83
2023/05/01 13:09:31;;;;;;;0.82;0.57;;;;;;;;;;6305249;22;19999;-81
2023/05/01 13:11:57;;;;;;;1.48;0.70;;;;;;;;;;6305579;22;20003;-85
2023/05/01 13:14:22;;;;;;;1.52;0.57;;;;;;;;;;6305147;22;20432;-85
2023/05/01 13:16:48;;;;;;;2.05;1.00;;;;;;;;;;6305967;22;20019;-86
2023/05/01 13:19:25;;;;;;;1.52;0.60;;;;;;;;;;6277672;22;20003;-87
2023/05/01 13:21:51;;;;;;;1.58;0.52;;;;;;;;;;6305138;22;20428;-84
2023/05/01 13:24:16;;;;;;;0.70;0.60;;;;;;;;;;6303879;22;20078;-85
2023/05/01 13:26:43;;;;;;;1.08;0.70;;;;;;;;;;6305494;22;20003;-87
2023/05/01 13:29:16;;;;;;;1.60;0.73;;;;;;;;;;6304327;22;20004;-82
2023/05/01 13:31:44;;;;;;;0.50;0.47;;;;;;;;;;6305394;22;20392;-83
2023/05/01 13:34:14;;;;;;;0.70;0.60;;;;;;;;;;6303661;22;20003;-84
2023/05/01 13:36:39;;;;;;;1.42;0.70;;;;;;;;;;6303493;22;20011;-84
2023/05/01 13:39:05;;;;;;;2.03;0.80;;;;;;;;;;6304073;22;20087;-89
2023/05/01 13:41:31;;;;;;;1.35;0.70;;;;;;;;;;6278033;22;20048;-86
2023/05/01 13:43:56;;;;;;;1.08;0.90;;;;;;;;;;6306199;22;20428;-84
2023/05/01 13:46:27;;;;;;;0.98;0.80;;;;;;;;;;6304573;22;20309;-88
2023/05/01 13:48:53;;;;;;;1.02;0.90;;;;;;;;;;6302555;22;20007;-87
2023/05/01 13:51:23;;;;;;;2.03;0.80;;;;;;;;;;6302963;22;20082;-79
2023/05/01 13:53:49;;;;;;;2.83;0.90;;;;;;;;;;6302445;22;19999;-88
2023/05/01 13:56:15;;;;;;;3.78;1.20;;;;;;;;;;6305165;22;20015;-91
2023/05/01 13:58:41;;;;;;;0.90;0.75;;;;;;;;;;6305627;22;20070;-91
2023/05/01 14:01:14;;;;;;;2.60;0.77;;;;;;;;;;6279370;22;20007;-92
2023/05/01 14:03:41;;;;;;;1.45;0.75;;;;;;;;;;6307713;22;19999;-92
2023/05/01 14:06:14;;;;;;;1.45;0.85;;;;;;;;;;6305558;22;19999;-90
2023/05/01 14:08:39;;;;;;;1.55;0.95;;;;;;;;;;6304843;22;20007;-90
2023/05/01 14:11:07;;;;;;;0.80;0.80;;;;;;;;;;6303934;22;20077;-88
2023/05/01 14:13:34;;;;;;;0.85;0.80;;;;;;;;;;6302125;22;19999;-90
2023/05/01 14:16:00;;;;;;;0.82;0.70;;;;;;;;;;6304766;22;20031;-89
2023/05/01 14:18:25;;;;;;;1.17;0.70;;;;;;;;;;6306326;22;20007;-90
2023/05/01 14:20:51;;;;;;;2.05;0.90;;;;;;;;;;6305632;22;19991;-92
2023/05/01 14:23:19;;;;;;;2.13;0.85;;;;;;;;;;6309307;22;20000;-93
2023/05/01 14:25:47;;;;;;;1.45;1.10;;;;;;;;;;6308425;22;19999;-93
2023/05/01 14:28:13;;;;;;;2.05;0.90;;;;;;;;;;6310699;22;20003;-92
2023/05/01 14:30:40;;;;;;;3.90;0.90;;;;;;;;;;6308705;22;20026;-90
2023/05/01 14:33:10;;;;;;;8.10;1.17;;;;;;;;;;6281094;22;20007;-95
2023/05/01 14:35:42;;;;;;;1.42;0.93;;;;;;;;;;6310094;22;20003;-92
2023/05/01 14:38:12;;;;;;;1.13;0.80;;;;;;;;;;6276701;22;20361;-88
2023/05/01 14:40:42;;;;;;;1.15;0.70;;;;;;;;;;6300001;22;20653;-80
2023/05/01 14:43:09;;;;;;;1.25;0.70;;;;;;;;;;6302034;22;20007;-87
2023/05/01 14:45:41;;;;;;;1.05;0.80;;;;;;;;;;6302389;22;20008;-87
2023/05/01 14:48:06;;;;;;;3.22;0.95;;;;;;;;;;6300348;22;20030;-85
2023/05/01 14:50:32;;;;;;;2.30;0.93;;;;;;;;;;6301438;22;20344;-85
2023/05/01 14:52:59;;;;;;;2.08;1.00;;;;;;;;;;6300256;22;20124;-80
2023/05/01 14:55:29;;;;;;;2.15;0.95;;;;;;;;;;6300703;22;20010;-84
2023/05/01 14:57:55;;;;;;;1.90;0.80;;;;;;;;;;6299645;22;20009;-82
2023/05/01 15:00:22;;;;;;;2.40;0.88;;;;;;;;;;6299808;22;20045;-90
2023/05/01 15:02:47;;;;;;;1.17;0.80;;;;;;;;;;6300047;22;20003;-82
2023/05/01 15:05:13;;;;;;;1.58;0.90;;;;;;;;;;6299630;22;20317;-85
2023/05/01 15:07:39;;;;;;;1.73;0.70;;;;;;;;;;6299000;22;20007;-85
2023/05/01 15:10:04;;;;;;;1.15;0.80;;;;;;;;;;6274535;22;20043;-87
2023/05/01 15:12:30;;;;;;;1.95;0.90;;;;;;;;;;6301117;22;20463;-85
2023/05/01 15:14:55;;;;;;;1.02;0.73;;;;;;;;;;6302158;22;20010;-81
2023/05/01 15:17:21;;;;;;;0.70;0.70;;;;;;;;;;6303270;22;20109;-84
2023/05/01 15:19:46;;;;;;;1.25;0.70;;;;;;;;;;6303089;22;20000;-82
2023/05/01 15:22:11;;;;;;;2.10;0.65;;;;;;;;;;6302703;22;20442;-83
2023/05/01 15:24:38;;;;;;;0.60;0.60;;;;;;;;;;6303012;22;20380;-78
2023/05/01 15:27:03;;;;;;;0.80;0.60;;;;;;;;;;6303513;22;20117;-79
2023/05/01 15:29:29;;;;;;;2.28;0.70;;;;;;;;;;6305565;22;20019;-78
2023/05/01 15:31:54;;;;;;;2.53;0.80;;;;;;;;;;6312338;22;20006;-86
2023/05/01 15:34:20;;;;;;;1.27;0.80;;;;;;;;;;6302195;22;20450;-82
2023/05/01 15:36:45;;;;;;;1.67;0.90;;;;;;;;;;6303225;22;20072;-85
2023/05/01 15:39:12;;;;;;;1.20;0.65;;;;;;;;;;6301987;22;20387;-81
2023/05/01 15:41:37;;;;;;;2.95;0.65;;;;;;;;;;6311538;22;20296;-93
2023/05/01 15:44:09;;;;;;;2.25;0.85;;;;;;;;;;6303715;22;20007;-85
2023/05/01 15:46:35;;;;;;;1.33;0.80;;;;;;;;;;6301184;22;20003;-89
2023/05/01 15:49:00;;;;;;;1.13;0.80;;;;;;;;;;6302355;22;20014;-84
2023/05/01 15:51:26;;;;;;;1.55;0.60;;;;;;;;;;6302279;22;20499;-85
2023/05/01 15:53:51;;;;;;;1.33;0.70;;;;;;;;;;6303211;22;20061;-82
2023/05/01 15:56:17;;;;;;;2.25;0.60;;;;;;;;;;6303136;22;20013;-83
2023/05/01 15:58:42;;;;;;;2.10;0.80;;;;;;;;;;6302952;22;20034;-85
2023/05/01 16:01:08;;;;;;;0.90;0.70;;;;;;;;;;6305883;22;20007;-91
2023/05/01 16:03:33;;;;;;;2.17;0.80;;;;;;;;;;6312837;22;20306;-87
2023/05/01 16:05:59;;;;;;;1.98;0.80;;;;;;;;;;6284442;22;20022;-84
2023/05/01 16:08:25;;;;;;;1.08;0.65;;;;;;;;;;6306450;22;19999;-88
2023/05/01 16:10:52;;;;;;;2.35;0.80;;;;;;;;;;6312486;22;19996;-91
2023/05/01 16:13:18;;;;;;;1.00;0.65;;;;;;;;;;6310275;22;19995;-85
2023/05/01 16:15:43;;;;;;;1.13;0.70;;;;;;;;;;6311852;22;20064;-93
2023/05/01 16:18:19;;;;;;;1.67;0.60;;;;;;;;;;6308264;22;20000;-90
2023/05/01 16:20:44;;;;;;;1.02;0.70;;;;;;;;;;6301479;22;20435;-84
2023/05/01 16:23:11;;;;;;;2.20;0.70;;;;;;;;;;6309944;22;19991;-89
2023/05/01 16:25:41;;;;;;;1.52;0.70;;;;;;;;;;6306418;22;19987;-88
2023/05/01 16:28:07;;;;;;;2.65;0.98;;;;;;;;;;6307753;22;20041;-87
2023/05/01 16:30:32;;;;;;;1.20;0.80;;;;;;;;;;6310498;22;19999;-87
2023/05/01 16:33:00;;;;;;;0.95;0.68;;;;;;;;;;6312621;22;19995;-84
2023/05/01 16:35:26;;;;;;;1.08;0.80;;;;;;;;;;6312660;22;20056;-86
2023/05/01 16:37:53;;;;;;;1.08;0.60;;;;;;;;;;6312062;22;20056;-86
2023/05/01 16:40:18;;;;;;;1.17;0.70;;;;;;;;;;6312506;22;20168;-86
2023/05/01 16:42:53;;;;;;;1.10;0.70;;;;;;;;;;6313115;22;19998;-86
2023/05/01 16:45:19;;;;;;;1.17;0.70;;;;;;;;;;6311494;22;20549;-85
2023/05/01 16:47:45;;;;;;;0.95;0.80;;;;;;;;;;6308673;22;19999;-83
2023/05/01 16:50:11;;;;;;;0.60;0.60;;;;;;;;;;6311714;22;19991;-85
2023/05/01 16:52:38;;;;;;;1.25;0.73;;;;;;;;;;6311964;22;20007;-87
2023/05/01 16:55:05;;;;;;;0.98;0.70;;;;;;;;;;6313098;22;20007;-85
2023/05/01 16:57:30;;;;;;;1.90;0.73;;;;;;;;;;6311153;22;20030;-86
2023/05/01 16:59:56;;;;;;;1.38;0.70;;;;;;;;;;6311607;22;20494;-82
2023/05/01 17:02:21;;;;;;;1.95;0.70;;;;;;;;;;6307188;22;19999;-81
2023/05/01 17:04:47;;;;;;;2.05;0.80;;;;;;;;;;6303666;22;20069;-81
2023/05/01 17:07:12;;;;;;;1.70;0.80;;;;;;;;;;6309951;22;19999;-79
2023/05/01 17:09:38;;;;;;;2.47;0.70;;;;;;;;;;6305459;22;20044;-80
2023/05/01 17:12:07;;;;;;;1.77;0.80;;;;;;;;;;6307553;22;20006;-83
2023/05/01 17:14:32;;;;;;;1.50;0.80;;;;;;;;;;6277697;22;20026;-90
2023/05/01 17:16:58;;;;;;;1.00;0.88;;;;;;;;;;6282009;22;20224;-84
2023/05/01 17:19:23;;;;;;;1.73;0.73;;;;;;;;;;6312513;22;20067;-88
2023/05/01 17:21:49;;;;;;;1.30;0.80;;;;;;;;;;6310911;22;19995;-83
2023/05/01 17:24:14;;;;;;;1.38;0.73;;;;;;;;;;6308017;22;19991;-89
2023/05/01 17:26:40;;;;;;;1.20;0.90;;;;;;;;;;6307292;22;19996;-89
2023/05/01 17:29:05;;;;;;;1.60;0.80;;;;;;;;;;6276811;22;20007;-86
2023/05/01 17:31:31;;;;;;;2.83;0.93;;;;;;;;;;6302326;22;20381;-85
2023/05/01 17:33:56;;;;;;;2.17;1.00;;;;;;;;;;6301607;22;19999;-80
2023/05/01 17:36:22;;;;;;;1.20;0.90;;;;;;;;;;6299616;22;20003;-86
2023/05/01 17:38:49;;;;;;;1.50;0.90;;;;;;;;;;6301626;22;19999;-84
2023/05/01 17:41:14;;;;;;;1.15;0.82;;;;;;;;;;6274026;22;20010;-83
2023/05/01 17:43:40;;;;;;;1.90;0.90;;;;;;;;;;6301384;22;20003;-84
2023/05/01 17:46:06;;;;;;;1.08;0.82;;;;;;;;;;6307649;22;19996;-84
2023/05/01 17:48:32;;;;;;;2.22;1.10;;;;;;;;;;6312996;22;20002;-83
2023/05/01 17:50:57;;;;;;;2.70;0.95;;;;;;;;;;6312364;22;20003;-78
2023/05/01 17:53:23;;;;;;;2.67;1.08;;;;;;;;;;6306577;22;19996;-87
2023/05/01 17:55:48;;;;;;;1.70;0.90;;;;;;;;;;6312775;22;20193;-83
2023/05/01 17:58:14;;;;;;;1.92;1.20;;;;;;;;;;6285142;22;20302;-81
2023/05/01 18:00:40;;;;;;;2.58;0.90;;;;;;;;;;6312497;22;20295;-86
2023/05/01 18:03:05;;;;;;;2.95;1.20;;;;;;;;;;6313519;22;19999;-88
2023/05/01 18:05:30;;;;;;;1.80;1.17;;;;;;;;;;6311367;22;19995;-87
2023/05/01 18:07:56;;;;;;;1.85;1.23;;;;;;;;;;6311270;22;20023;-82
2023/05/01 18:10:21;;;;;;;1.77;1.05;;;;;;;;;;6311167;22;19995;-86
2023/05/01 18:12:48;;;;;;;2.08;1.10;;;;;;;;;;6311340;22;20183;-86
2023/05/01 18:15:14;;;;;;;2.35;1.08;;;;;;;;;;6311928;22;19999;-87
2023/05/01 18:17:40;;;;;;;2.10;1.00;;;;;;;;;;6312097;22;20007;-87
2023/05/01 18:20:06;;;;;;;3.03;1.20;;;;;;;;;;6311394;22;20314;-85
2023/05/01 18:22:31;;;;;;;2.15;1.00;;;;;;;;;;6311055;22;20003;-87
2023/05/01 18:24:57;;;;;;;1.88;1.20;;;;;;;;;;6311668;22;20234;-86
2023/05/01 18:27:22;;;;;;;1.40;1.00;;;;;;;;;;6312355;22;19999;-77
2023/05/01 18:29:47;;;;;;;2.63;1.00;;;;;;;;;;6311938;22;20059;-81
2023/05/01 18:32:13;;;;;;;2.33;1.10;;;;;;;;;;6312151;22;20043;-85
2023/05/01 18:34:38;;;;;;;2.03;1.20;;;;;;;;;;6284208;22;20011;-86
2023/05/01 18:37:04;;;;;;;2.33;1.20;;;;;;;;;;6309757;22;20010;-85
2023/05/01 18:39:29;;;;;;;1.75;1.23;;;;;;;;;;6312382;22;19999;-89
2023/05/01 18:41:55;;;;;;;2.92;1.50;;;;;;;;;;6313384;22;20123;-87
2023/05/01 18:44:20;;;;;;;2.75;1.55;;;;;;;;;;6314035;22;20034;-87
2023/05/01 18:46:46;;;;;;;2.75;1.50;;;;;;;;;;6313903;22;20326;-90
2023/05/01 18:49:11;;;;;;;2.88;1.52;;;;;;;;;;6285390;22;20007;-87
2023/05/01 18:51:37;;;;;;;2.20;1.30;;;;;;;;;;6306788;22;20083;-87
2023/05/01 18:54:02;;;;;;;3.45;1.40;;;;;;;;;;6308384;22;20003;-90
2023/05/01 18:56:32;;;;;;;5.90;1.30;;;;;;;;;;6309535;22;20003;-93
2023/05/01 18:58:58;;;;;;;3.00;1.45;;;;;;;;;;6304305;22;20003;-86
2023/05/01 19:01:24;;;;;;;2.13;1.20;;;;;;;;;;6286469;22;20056;-89
2023/05/01 19:03:49;;;;;;;3.03;1.40;;;;;;;;;;6313592;22;20183;-93
2023/05/01 19:06:14;;;;;;;2.30;1.50;;;;;;;;;;6315032;22;20003;-91
2023/05/01 19:08:40;;;;;;;2.55;1.45;;;;;;;;;;6314637;22;19999;-89
2023/05/01 19:11:05;;;;;;;3.65;1.45;;;;;;;;;;6289231;22;20003;-88
2023/05/01 19:13:31;;;;;;;2.30;1.48;;;;;;;;;;6309565;22;20227;-89
2023/05/01 19:15:58;;;;;;;2.00;1.40;;;;;;;;;;6322277;22;20006;-84
2023/05/01 19:18:24;;;;;;;2.38;1.45;;;;;;;;;;6317822;22;20450;-86
2023/05/01 19:20:49;;;;;;;2.70;1.40;;;;;;;;;;6313376;22;19995;-91
2023/05/01 19:23:15;;;;;;;2.13;1.33;;;;;;;;;;6303621;22;20011;-79
2023/05/01 19:25:40;;;;;;;2.33;1.30;;;;;;;;;;6302655;22;20034;-82
2023/05/01 19:28:06;;;;;;;2.17;1.40;;;;;;;;;;6303506;22;20007;-85
2023/05/01 19:30:31;;;;;;;3.00;1.30;;;;;;;;;;6275550;22;20034;-83
2023/05/01 19:32:57;;;;;;;2.45;1.30;;;;;;;;;;6304360;22;20003;-83
2023/05/01 19:35:23;;;;;;;2.40;1.50;;;;;;;;;;6305667;22;20000;-87
2023/05/01 19:37:58;;;;;;;1.80;1.40;;;;;;;;;;6303135;22;20023;-86
2023/05/01 19:40:23;;;;;;;2.83;1.60;;;;;;;;;;6303059;22;20014;-85
2023/05/01 19:42:49;;;;;;;2.20;1.30;;;;;;;;;;6277416;22;20090;-90
2023/05/01 19:45:15;;;;;;;2.30;1.42;;;;;;;;;;6312502;22;19999;-86
2023/05/01 19:47:41;;;;;;;3.10;1.30;;;;;;;;;;6314730;22;20010;-89
2023/05/01 19:50:07;;;;;;;2.58;1.50;;;;;;;;;;6313845;22;20026;-87
2023/05/01 19:52:32;;;;;;;2.45;1.50;;;;;;;;;;6286751;22;20008;-89
2023/05/01 19:55:02;;;;;;;2.95;1.33;;;;;;;;;;6310634;22;20546;-87
2023/05/01 19:57:27;;;;;;;2.58;1.50;;;;;;;;;;6262293;22;20007;-88
2023/05/01 19:59:54;;;;;;;2.63;1.50;;;;;;;;;;6286357;22;19991;-89
2023/05/01 20:02:20;;;;;;;2.55;1.63;;;;;;;;;;6287525;22;20018;-93
2023/05/01 20:04:46;;;;;;;3.80;1.70;;;;;;;;;;6314345;22;20195;-91
2023/05/01 20:07:11;;;;;;;3.15;1.67;;;;;;;;;;6287475;22;20013;-93
2023/05/01 20:09:37;;;;;;;2.85;1.50;;;;;;;;;;6315422;22;20405;-83
2023/05/01 20:12:02;;;;;;;4.00;1.60;;;;;;;;;;6315000;22;19999;-92
2023/05/01 20:14:28;;;;;;;3.67;1.85;;;;;;;;;;6315909;22;20096;-92
2023/05/01 20:16:53;;;;;;;8.82;4.93;;;;;;;;;;6314122;22;20006;-91
2023/05/01 20:19:19;;;;;;;4.80;1.40;;;;;;;;;;6313543;22;20079;-91
2023/05/01 20:21:44;;;;;;;3.58;1.48;;;;;;;;;;6312354;22;19999;-89
2023/05/01 20:24:10;;;;;;;2.65;1.33;;;;;;;;;;6312533;22;19999;-89
2023/05/01 20:26:35;;;;;;;3.92;1.30;;;;;;;;;;6312723;22;20003;-87
2023/05/01 20:29:01;;;;;;;3.33;1.33;;;;;;;;;;6311674;22;20014;-91
2023/05/01 20:31:27;;;;;;;3.40;1.40;;;;;;;;;;6312255;22;20011;-90
2023/05/01 20:33:52;;;;;;;2.30;1.35;;;;;;;;;;6313617;22;19995;-91
2023/05/01 20:36:19;;;;;;;2.53;1.30;;;;;;;;;;6313186;22;20030;-90
2023/05/01 20:38:46;;;;;;;3.33;1.30;;;;;;;;;;6313346;22;20046;-89
2023/05/01 20:41:12;;;;;;;3.53;1.40;;;;;;;;;;6313967;22;20051;-90
2023/05/01 20:43:37;;;;;;;2.63;1.42;;;;;;;;;;6313234;22;20374;-91
2023/05/01 20:46:03;;;;;;;2.22;1.40;;;;;;;;;;6313384;22;20003;-91
2023/05/01 20:48:28;;;;;;;3.15;2.00;;;;;;;;;;6312429;22;20058;-89
2023/05/01 20:50:54;;;;;;;3.30;1.80;;;;;;;;;;6312392;22;20022;-89
2023/05/01 20:53:19;;;;;;;5.80;2.35;;;;;;;;;;6312799;22;19999;-89
2023/05/01 20:55:45;;;;;;;3.75;2.17;;;;;;;;;;6312489;22;20240;-90
2023/05/01 20:58:11;;;;;;;4.43;1.83;;;;;;;;;;6312372;22;20006;-89
2023/05/01 21:00:36;;;;;;;4.25;2.10;;;;;;;;;;6312805;22;19999;-90
2023/05/01 21:03:01;;;;;;;5.35;2.20;;;;;;;;;;6312699;22;20215;-90
2023/05/01 21:05:27;;;;;;;3.90;1.80;;;;;;;;;;6312698;22;20080;-89
2023/05/01 21:07:52;;;;;;;3.25;1.70;;;;;;;;;;6284972;22;20370;-91
2023/05/01 21:10:18;;;;;;;3.92;1.70;;;;;;;;;;6313071;22;20007;-92
2023/05/01 21:12:43;;;;;;;4.00;1.30;;;;;;;;;;6312718;22;19998;-89
2023/05/01 21:15:10;;;;;;;2.50;1.20;;;;;;;;;;6312361;22;20022;-90
2023/05/01 21:17:36;;;;;;;3.95;1.20;;;;;;;;;;6312513;22;20011;-87
2023/05/01 21:20:08;;;;;;;5.20;1.40;;;;;;;;;;6311853;22;20015;-89
2023/05/01 21:22:34;;;;;;;4.93;1.20;;;;;;;;;;6312255;22;20015;-89
2023/05/01 21:24:59;;;;;;;3.10;1.30;;;;;;;;;;6311958;22;20006;-88
2023/05/01 21:27:26;;;;;;;5.50;1.23;;;;;;;;;;6312013;22;20007;-89
2023/05/01 21:30:00;;;;;;;2.53;1.20;;;;;;;;;;6311952;22;20320;-89
2023/05/01 21:32:31;;;;;;;3.78;1.10;;;;;;;;;;6285372;22;20022;-89
2023/05/01 21:34:57;;;;;;;2.97;1.05;;;;;;;;;;6311766;22;20009;-89
2023/05/01 21:37:22;;;;;;;3.97;1.40;;;;;;;;;;6311656;22;20223;-87
2023/05/01 21:39:48;;;;;;;5.43;1.38;;;;;;;;;;6312130;22;19999;-88
2023/05/01 21:42:14;;;;;;;3.63;1.23;;;;;;;;;;6312097;22;20225;-90
2023/05/01 21:44:40;;;;;;;3.80;1.30;;;;;;;;;;6285029;22;20027;-90
2023/05/01 21:47:05;;;;;;;3.67;1.50;;;;;;;;;;6312398;22;20023;-89
2023/05/01 21:49:31;;;;;;;4.40;1.40;;;;;;;;;;6312188;22;20169;-89
2023/05/01 21:52:00;;;;;;;4.10;1.40;;;;;;;;;;6311939;22;20078;-89
2023/05/01 21:54:29;;;;;;;5.10;1.20;;;;;;;;;;6312904;22;20224;-90
2023/05/01 21:56:58;;;;;;;3.78;1.20;;;;;;;;;;6285110;22;20456;-86